Herzlich willkommen!

Am freundlichen Bodensee-Flugplatz zwischen Schwarzwald, Rhein und Alpen.

Aktuelles

23.05.2019
Seenachtfest
9. bis 11. August 2019 (E1308/19 NOTAMN Q) LSAS/QFALC/IV/NBO/A /000/999/4741N00908E005 A) EDTZ B) 1908090800 C) 1908111000 E) AD CLSD.)
— Flugleitung EDTZ

Live am Platz

Die Bilder unserer Webcams werden alle 5 Minuten aktualisiert.

Sonnenaufgang:

03:31 UTC / 05:31 Lokal

Sonnenuntergang:

19:09 UTC / 21:09 Lokal

METAR (26.05.2019 19:20 UTC):

EDNY 261920Z VRB01KT CAVOK 14/08 Q1014
VFR

TAF (26.05.2019 17:00 UTC):

TAF EDNY 261700Z 2618/2718 22005KT 9999 FEW040 BECMG 2618/2620 VRB03KT BECMG 2710/2712 25005KT

Alle Angaben unverbindlich und ohne Gewähr. Zeiten genähert.

Für den Verkehrslandeplatz Konstanz werden keine offiziellen Wetterinformationen ausgegeben. Daher werden zur Orientierung Daten des nahegelegenen Flughafens Friedrichshafen dargestellt.

Flugwetterdaten zur Verfügung gestellt von wippich.aero.